Time;durP1;ratioP1;P1;durP2;ratioP2;P2;SDS_P1;SDS_P2;PMS_P1;PMS_P2;Temp;Humidity;BMP_temperature;BMP_pressure;BME280_temperature;BME280_humidity;BME280_pressure;Samples;Min_cycle;Max_cycle;Signal;HPM_P1;HPM_P2
2023/05/21 00:00:52;;;;;;;2.15;1.10;;;;;;;;;;4946396;28;102318;-82
2023/05/21 00:03:19;;;;;;;1.42;1.15;;;;;;;;;;4947800;28;99432;-82
2023/05/21 00:05:46;;;;;;;;;;;;;;;;;;4948673;28;98495;-81
2023/05/21 00:08:13;;;;;;;3.08;1.00;;;;;;;;;;4947037;28;110421;-81
2023/05/21 00:10:39;;;;;;;1.70;1.10;;;;;;;;;;4946587;28;99952;-81
2023/05/21 00:13:07;;;;;;;1.73;1.10;;;;;;;;;;4950887;28;98473;-81
2023/05/21 00:15:34;;;;;;;1.58;1.00;;;;;;;;;;4947411;28;98731;-81
2023/05/21 00:18:01;;;;;;;1.83;1.02;;;;;;;;;;4947895;28;98506;-82
2023/05/21 00:20:31;;;;;;;1.70;1.20;;;;;;;;;;4945937;28;98750;-81
2023/05/21 00:22:58;;;;;;;1.45;1.08;;;;;;;;;;4946136;28;104807;-81
2023/05/21 00:25:25;;;;;;;1.42;1.10;;;;;;;;;;4947399;28;98922;-81
2023/05/21 00:27:51;;;;;;;1.83;1.17;;;;;;;;;;4946767;28;100722;-81
2023/05/21 00:30:18;;;;;;;1.73;1.00;;;;;;;;;;4929498;28;101841;-81
2023/05/21 00:32:45;;;;;;;2.15;1.27;;;;;;;;;;4950003;28;98764;-81
2023/05/21 00:35:12;;;;;;;1.63;1.13;;;;;;;;;;4946810;28;100500;-81
2023/05/21 00:37:39;;;;;;;2.33;1.30;;;;;;;;;;4945991;28;98676;-81
2023/05/21 00:40:07;;;;;;;2.22;1.25;;;;;;;;;;4947849;28;98835;-81
2023/05/21 00:42:38;;;;;;;2.25;1.20;;;;;;;;;;4944907;28;102213;-80
2023/05/21 00:45:06;;;;;;;1.83;1.20;;;;;;;;;;4945779;28;98669;-81
2023/05/21 00:47:33;;;;;;;2.22;1.10;;;;;;;;;;4947102;28;99911;-81
2023/05/21 00:50:02;;;;;;;2.13;1.15;;;;;;;;;;4947006;28;99088;-82
2023/05/21 00:52:29;;;;;;;2.50;1.20;;;;;;;;;;4947033;28;98507;-81
2023/05/21 00:54:55;;;;;;;2.70;1.20;;;;;;;;;;4969049;28;103769;-80
2023/05/21 00:57:24;;;;;;;2.35;1.10;;;;;;;;;;4962042;28;98624;-83
2023/05/21 00:59:51;;;;;;;2.60;1.20;;;;;;;;;;4957521;28;99205;-81
2023/05/21 01:02:18;;;;;;;2.30;1.10;;;;;;;;;;4966027;28;100241;-81
2023/05/21 01:04:45;;;;;;;1.75;1.20;;;;;;;;;;4963198;28;98149;-80
2023/05/21 01:07:13;;;;;;;2.10;1.10;;;;;;;;;;4953160;28;98463;-81
2023/05/21 01:09:41;;;;;;;1.90;1.10;;;;;;;;;;4944626;28;100263;-80
2023/05/21 01:12:08;;;;;;;2.58;1.17;;;;;;;;;;4962146;28;99402;-81
2023/05/21 01:14:36;;;;;;;1.83;1.20;;;;;;;;;;4953170;28;100813;-81
2023/05/21 01:17:04;;;;;;;2.25;1.17;;;;;;;;;;4948111;28;100636;-81
2023/05/21 01:19:34;;;;;;;3.03;1.30;;;;;;;;;;4947198;28;98792;-81
2023/05/21 01:22:05;;;;;;;2.40;1.20;;;;;;;;;;4946398;28;99976;-81
2023/05/21 01:24:31;;;;;;;2.15;1.05;;;;;;;;;;4946154;28;98509;-82
2023/05/21 01:27:00;;;;;;;2.13;1.40;;;;;;;;;;4944534;28;100313;-82
2023/05/21 01:29:26;;;;;;;2.50;1.30;;;;;;;;;;4947041;28;99300;-80
2023/05/21 01:32:05;;;;;;;2.00;1.20;;;;;;;;;;4946645;28;100231;-82
2023/05/21 01:34:52;;;;;;;2.35;1.20;;;;;;;;;;4945041;28;101612;-80
2023/05/21 01:37:21;;;;;;;2.95;1.33;;;;;;;;;;4946277;28;99766;-81
2023/05/21 01:39:54;;;;;;;2.30;1.23;;;;;;;;;;4953590;28;98590;-82
2023/05/21 01:42:22;;;;;;;2.17;1.30;;;;;;;;;;4946330;28;98913;-81
2023/05/21 01:44:50;;;;;;;2.42;1.20;;;;;;;;;;4944056;28;98536;-81
2023/05/21 01:47:17;;;;;;;1.98;1.15;;;;;;;;;;4946280;28;98768;-81
2023/05/21 01:49:44;;;;;;;1.60;1.10;;;;;;;;;;4945400;28;100218;-81
2023/05/21 01:52:11;;;;;;;1.80;1.20;;;;;;;;;;4929186;28;99059;-81
2023/05/21 01:54:38;;;;;;;1.63;1.10;;;;;;;;;;4945308;28;99872;-81
2023/05/21 01:57:05;;;;;;;2.00;1.30;;;;;;;;;;4944725;28;101486;-82
2023/05/21 01:59:32;;;;;;;2.15;1.20;;;;;;;;;;4965859;28;98536;-81
2023/05/21 02:01:58;;;;;;;1.80;1.10;;;;;;;;;;4954473;28;101266;-82
2023/05/21 02:04:25;;;;;;;2.53;1.20;;;;;;;;;;4956509;28;98871;-81
2023/05/21 02:06:53;;;;;;;2.65;1.40;;;;;;;;;;4963146;28;101351;-80
2023/05/21 02:09:20;;;;;;;2.63;1.38;;;;;;;;;;4965684;28;99215;-82
2023/05/21 02:11:47;;;;;;;3.20;1.27;;;;;;;;;;4964495;28;98604;-81
2023/05/21 02:14:13;;;;;;;2.30;1.40;;;;;;;;;;4963967;28;101916;-81
2023/05/21 02:16:40;;;;;;;2.13;1.27;;;;;;;;;;4963379;28;102038;-81
2023/05/21 02:19:09;;;;;;;2.60;1.30;;;;;;;;;;4964310;28;97934;-81
2023/05/21 02:21:35;;;;;;;2.17;1.30;;;;;;;;;;4963759;28;99842;-81
2023/05/21 02:24:02;;;;;;;2.20;1.30;;;;;;;;;;4968261;28;99133;-81
2023/05/21 02:26:29;;;;;;;2.35;1.20;;;;;;;;;;4948573;28;99200;-81
2023/05/21 02:28:55;;;;;;;1.60;1.02;;;;;;;;;;4964313;28;103613;-82
2023/05/21 02:31:22;;;;;;;3.05;1.52;;;;;;;;;;4963314;28;99220;-81
2023/05/21 02:33:48;;;;;;;2.05;1.25;;;;;;;;;;4959886;28;99954;-82
2023/05/21 02:36:17;;;;;;;2.33;1.30;;;;;;;;;;4945284;28;99093;-81
2023/05/21 02:38:44;;;;;;;2.55;1.20;;;;;;;;;;4942703;28;98597;-81
2023/05/21 02:41:11;;;;;;;2.70;1.33;;;;;;;;;;4944060;28;101574;-81
2023/05/21 02:43:38;;;;;;;2.92;1.20;;;;;;;;;;4947343;28;100755;-80
2023/05/21 02:46:05;;;;;;;2.33;1.20;;;;;;;;;;4943159;28;101716;-81
2023/05/21 02:48:32;;;;;;;2.20;1.40;;;;;;;;;;4945134;28;99351;-81
2023/05/21 02:50:58;;;;;;;1.88;1.15;;;;;;;;;;4943085;28;99393;-81
2023/05/21 02:53:25;;;;;;;2.03;1.30;;;;;;;;;;4944211;28;102432;-81
2023/05/21 02:55:52;;;;;;;3.05;1.38;;;;;;;;;;4927600;28;101981;-81
2023/05/21 02:58:22;;;;;;;2.85;1.27;;;;;;;;;;4949003;28;98829;-82
2023/05/21 03:00:49;;;;;;;2.63;1.30;;;;;;;;;;4946543;28;100592;-80
2023/05/21 03:03:15;;;;;;;3.13;1.50;;;;;;;;;;4947132;28;99221;-80
2023/05/21 03:05:44;;;;;;;2.70;1.52;;;;;;;;;;4950440;28;98556;-81
2023/05/21 03:08:11;;;;;;;2.08;1.33;;;;;;;;;;4947379;28;101243;-81
2023/05/21 03:10:38;;;;;;;2.53;1.25;;;;;;;;;;4929767;28;98579;-81
2023/05/21 03:13:05;;;;;;;2.60;1.38;;;;;;;;;;4946605;28;100320;-81
2023/05/21 03:15:37;;;;;;;2.55;1.38;;;;;;;;;;4945841;28;102039;-81
2023/05/21 03:18:04;;;;;;;2.65;1.40;;;;;;;;;;4948232;28;99088;-81
2023/05/21 03:20:32;;;;;;;3.92;1.50;;;;;;;;;;4948009;28;98912;-80
2023/05/21 03:23:02;;;;;;;2.75;1.33;;;;;;;;;;4946349;28;101739;-81
2023/05/21 03:25:29;;;;;;;3.42;1.60;;;;;;;;;;4954947;28;105116;-80
2023/05/21 03:27:56;;;;;;;2.53;1.30;;;;;;;;;;4959278;28;100071;-81
2023/05/21 03:30:45;;;;;;;3.25;1.25;;;;;;;;;;4956459;28;98480;-80
2023/05/21 03:33:35;;;;;;;3.45;1.50;;;;;;;;;;4966831;28;98902;-81
2023/05/21 03:36:13;;;;;;;2.75;1.63;;;;;;;;;;4951250;28;101940;-81
2023/05/21 03:38:41;;;;;;;;;;;;;;;;;;4966159;28;98676;-81
2023/05/21 03:41:07;;;;;;;3.05;1.50;;;;;;;;;;4967587;28;101204;-81
2023/05/21 03:43:35;;;;;;;3.33;1.70;;;;;;;;;;4953919;28;101456;-81
2023/05/21 03:46:02;;;;;;;2.78;1.50;;;;;;;;;;4965591;28;98660;-80
2023/05/21 03:48:57;;;;;;;2.42;1.30;;;;;;;;;;4953318;28;105554;-80
2023/05/21 03:51:26;;;;;;;1.98;1.33;;;;;;;;;;4968866;28;101588;-80
2023/05/21 03:53:53;;;;;;;3.00;1.50;;;;;;;;;;4966341;28;101160;-80
2023/05/21 03:56:20;;;;;;;2.38;1.40;;;;;;;;;;4966086;28;101276;-80
2023/05/21 03:58:47;;;;;;;3.10;1.50;;;;;;;;;;4967542;28;97779;-81
2023/05/21 04:01:14;;;;;;;3.92;1.70;;;;;;;;;;4949132;28;98513;-82
2023/05/21 04:03:40;;;;;;;2.08;1.33;;;;;;;;;;4945988;28;99606;-82
2023/05/21 04:06:08;;;;;;;3.55;1.60;;;;;;;;;;4945178;28;99883;-81
2023/05/21 04:08:37;;;;;;;3.45;1.42;;;;;;;;;;4928010;28;101875;-81
2023/05/21 04:11:04;;;;;;;3.40;1.73;;;;;;;;;;4944444;28;101371;-80
2023/05/21 04:13:31;;;;;;;2.90;1.40;;;;;;;;;;4948900;28;98594;-80
2023/05/21 04:15:57;;;;;;;2.78;1.38;;;;;;;;;;4947249;28;99171;-83
2023/05/21 04:18:25;;;;;;;2.20;1.33;;;;;;;;;;4946967;28;98594;-81
2023/05/21 04:20:52;;;;;;;2.05;1.35;;;;;;;;;;4944932;28;101285;-82
2023/05/21 04:23:22;;;;;;;2.70;1.35;;;;;;;;;;4947793;28;97933;-80
2023/05/21 04:25:50;;;;;;;3.35;1.70;;;;;;;;;;4932658;28;98721;-80
2023/05/21 04:28:20;;;;;;;2.78;1.48;;;;;;;;;;4949427;28;100739;-81
2023/05/21 04:30:47;;;;;;;3.47;1.55;;;;;;;;;;4945986;28;102221;-81
2023/05/21 04:33:18;;;;;;;3.55;1.58;;;;;;;;;;4945576;28;98584;-81
2023/05/21 04:35:48;;;;;;;3.05;1.60;;;;;;;;;;4950084;28;98981;-82
2023/05/21 04:38:18;;;;;;;3.05;1.40;;;;;;;;;;4945757;28;98570;-82
2023/05/21 04:40:49;;;;;;;3.72;1.50;;;;;;;;;;4944356;28;102013;-81
2023/05/21 04:43:16;;;;;;;2.45;1.48;;;;;;;;;;4944406;28;102371;-81
2023/05/21 04:45:43;;;;;;;3.05;1.40;;;;;;;;;;4944987;28;98638;-81
2023/05/21 04:48:11;;;;;;;2.83;1.50;;;;;;;;;;4945837;28;100756;-80
2023/05/21 04:50:40;;;;;;;2.83;1.30;;;;;;;;;;4943542;28;102088;-81
2023/05/21 04:53:09;;;;;;;3.65;1.42;;;;;;;;;;4947132;28;98952;-81
2023/05/21 04:55:38;;;;;;;2.40;1.40;;;;;;;;;;4947340;28;101475;-81
2023/05/21 04:58:05;;;;;;;2.88;1.30;;;;;;;;;;4941343;28;98797;-81
2023/05/21 05:00:33;;;;;;;2.67;1.45;;;;;;;;;;4944273;28;101647;-80
2023/05/21 05:02:59;;;;;;;2.13;1.30;;;;;;;;;;4927790;28;102006;-80
2023/05/21 05:05:26;;;;;;;4.05;1.52;;;;;;;;;;4944503;28;98909;-81
2023/05/21 05:07:53;;;;;;;3.88;1.58;;;;;;;;;;4944538;28;101329;-80
2023/05/21 05:10:19;;;;;;;2.38;1.30;;;;;;;;;;4945542;28;99022;-80
2023/05/21 05:12:47;;;;;;;2.22;1.35;;;;;;;;;;4944506;28;97789;-80
2023/05/21 05:15:14;;;;;;;2.38;1.30;;;;;;;;;;4944684;28;101238;-81
2023/05/21 05:17:41;;;;;;;;;;;;;;;;;;4948397;28;99367;-80
2023/05/21 05:20:09;;;;;;;3.58;1.50;;;;;;;;;;4944751;28;109901;-80
2023/05/21 05:22:36;;;;;;;2.25;1.40;;;;;;;;;;4945512;28;100593;-82
2023/05/21 05:25:03;;;;;;;3.55;1.40;;;;;;;;;;4944140;28;98596;-81
2023/05/21 05:27:29;;;;;;;3.58;1.75;;;;;;;;;;4946486;28;104868;-81
2023/05/21 05:29:56;;;;;;;2.05;1.33;;;;;;;;;;4944627;28;101886;-81
2023/05/21 05:32:23;;;;;;;3.22;1.42;;;;;;;;;;4946404;28;98568;-80
2023/05/21 05:34:50;;;;;;;2.63;1.45;;;;;;;;;;4943009;28;101770;-81
2023/05/21 05:37:18;;;;;;;4.18;1.40;;;;;;;;;;4944504;28;100983;-81
2023/05/21 05:39:44;;;;;;;3.30;1.40;;;;;;;;;;4949265;28;98550;-81
2023/05/21 05:42:12;;;;;;;2.17;1.38;;;;;;;;;;4944433;28;102416;-81
2023/05/21 05:44:39;;;;;;;2.65;1.50;;;;;;;;;;4942955;28;99331;-82
2023/05/21 05:47:09;;;;;;;3.30;1.35;;;;;;;;;;4928683;28;101951;-81
2023/05/21 05:49:37;;;;;;;2.17;1.30;;;;;;;;;;4943354;28;101934;-81
2023/05/21 05:52:04;;;;;;;2.55;1.35;;;;;;;;;;4944423;28;98714;-81
2023/05/21 05:54:31;;;;;;;;;;;;;;;;;;4944461;28;101478;-80
2023/05/21 05:56:58;;;;;;;3.15;1.50;;;;;;;;;;4944857;28;112180;-82
2023/05/21 05:59:27;;;;;;;2.92;1.40;;;;;;;;;;4944704;28;99423;-81
2023/05/21 06:01:58;;;;;;;2.67;1.40;;;;;;;;;;4947424;28;100952;-82
2023/05/21 06:04:28;;;;;;;2.35;1.30;;;;;;;;;;4944446;28;98709;-81
2023/05/21 06:06:56;;;;;;;2.15;1.20;;;;;;;;;;4944899;28;106955;-81
2023/05/21 06:09:23;;;;;;;2.60;1.45;;;;;;;;;;4944093;28;100914;-81
2023/05/21 06:11:50;;;;;;;;;;;;;;;;;;4946439;28;98642;-81
2023/05/21 06:14:16;;;;;;;3.13;1.42;;;;;;;;;;4953940;28;115031;-81
2023/05/21 06:16:43;;;;;;;3.30;1.38;;;;;;;;;;4943636;28;100775;-80
2023/05/21 06:19:10;;;;;;;2.85;1.65;;;;;;;;;;4945035;28;99325;-81
2023/05/21 06:21:36;;;;;;;2.85;1.50;;;;;;;;;;4943867;28;101907;-81
2023/05/21 06:24:04;;;;;;;2.55;1.60;;;;;;;;;;4948665;28;99656;-81
2023/05/21 06:26:31;;;;;;;3.63;1.45;;;;;;;;;;4945394;28;100032;-80
2023/05/21 06:28:58;;;;;;;;;;;;;;;;;;4943697;28;101765;-81
2023/05/21 06:31:25;;;;;;;2.95;1.50;;;;;;;;;;4945913;28;101710;-81
2023/05/21 06:33:52;;;;;;;3.60;1.40;;;;;;;;;;4944344;28;101612;-81
2023/05/21 06:36:20;;;;;;;3.13;1.50;;;;;;;;;;4944758;28;102188;-81
2023/05/21 06:38:46;;;;;;;;;;;;;;;;;;4944855;28;98529;-81
2023/05/21 06:41:13;;;;;;;2.67;1.60;;;;;;;;;;4946622;28;109009;-82
2023/05/21 06:43:52;;;;;;;3.60;1.60;;;;;;;;;;4944770;28;101163;-80
2023/05/21 06:46:38;;;;;;;3.63;1.63;;;;;;;;;;4950267;28;98555;-81
2023/05/21 06:49:06;;;;;;;3.35;1.60;;;;;;;;;;4947014;28;99017;-81
2023/05/21 06:51:33;;;;;;;3.05;1.52;;;;;;;;;;4947871;28;97846;-81
2023/05/21 06:54:02;;;;;;;2.60;1.50;;;;;;;;;;4944510;28;101214;-81
2023/05/21 06:56:29;;;;;;;3.65;1.45;;;;;;;;;;4946989;28;102186;-81
2023/05/21 06:58:56;;;;;;;2.58;1.50;;;;;;;;;;4940933;28;99377;-81
2023/05/21 07:01:23;;;;;;;3.70;1.55;;;;;;;;;;4929244;28;102336;-81
2023/05/21 07:03:50;;;;;;;3.03;1.50;;;;;;;;;;4945567;28;100182;-81
2023/05/21 07:06:17;;;;;;;2.28;1.40;;;;;;;;;;4948713;28;98554;-81
2023/05/21 07:08:44;;;;;;;;;;;;;;;;;;4944623;28;101717;-81
2023/05/21 07:11:10;;;;;;;3.00;1.40;;;;;;;;;;4947812;28;98531;-80
2023/05/21 07:13:37;;;;;;;3.63;1.50;;;;;;;;;;4929242;28;101630;-80
2023/05/21 07:16:04;;;;;;;3.80;1.58;;;;;;;;;;4945320;28;100255;-80
2023/05/21 07:18:31;;;;;;;3.53;1.60;;;;;;;;;;4944690;28;98547;-80
2023/05/21 07:20:58;;;;;;;3.28;1.52;;;;;;;;;;4944011;28;101598;-81
2023/05/21 07:23:25;;;;;;;2.72;1.50;;;;;;;;;;4926943;28;102232;-81
2023/05/21 07:25:52;;;;;;;3.13;1.50;;;;;;;;;;4943419;28;98592;-81
2023/05/21 07:28:19;;;;;;;3.75;1.85;;;;;;;;;;4929631;28;100298;-81
2023/05/21 07:30:46;;;;;;;2.97;1.50;;;;;;;;;;4943437;28;99196;-81
2023/05/21 07:33:19;;;;;;;2.83;1.48;;;;;;;;;;4944818;28;100994;-81
2023/05/21 07:35:46;;;;;;;3.55;1.52;;;;;;;;;;4943069;28;101590;-81
2023/05/21 07:38:13;;;;;;;2.65;1.50;;;;;;;;;;4943311;28;98672;-81
2023/05/21 07:40:40;;;;;;;3.08;1.50;;;;;;;;;;4942652;28;105502;-81
2023/05/21 07:43:06;;;;;;;2.63;1.40;;;;;;;;;;4938541;28;100126;-81
2023/05/21 07:45:34;;;;;;;3.28;1.45;;;;;;;;;;4946088;28;98654;-81
2023/05/21 07:48:03;;;;;;;2.80;1.50;;;;;;;;;;4945352;28;99454;-81
2023/05/21 07:50:31;;;;;;;3.33;1.42;;;;;;;;;;4948221;28;101227;-80
2023/05/21 07:52:58;;;;;;;3.50;1.50;;;;;;;;;;4945900;28;101627;-80
2023/05/21 07:55:25;;;;;;;2.70;1.60;;;;;;;;;;4952425;28;101759;-81
2023/05/21 07:57:52;;;;;;;;;;;;;;;;;;4944464;28;98594;-81
2023/05/21 08:00:24;;;;;;;3.53;1.60;;;;;;;;;;4942666;28;99724;-82
2023/05/21 08:02:55;;;;;;;3.33;1.58;;;;;;;;;;4960359;28;108322;-81
2023/05/21 08:05:24;;;;;;;2.58;1.50;;;;;;;;;;4945825;28;97972;-80
2023/05/21 08:07:51;;;;;;;2.95;1.70;;;;;;;;;;4962294;28;100527;-81
2023/05/21 08:10:19;;;;;;;3.17;1.50;;;;;;;;;;4957753;28;102060;-81
2023/05/21 08:12:47;;;;;;;3.00;1.58;;;;;;;;;;4931825;28;99328;-81
2023/05/21 08:15:14;;;;;;;3.42;1.50;;;;;;;;;;4965034;28;101662;-80
2023/05/21 08:17:43;;;;;;;3.70;1.73;;;;;;;;;;4965926;28;98600;-82
2023/05/21 08:20:12;;;;;;;;;;;;;;;;;;4965922;28;101628;-80
2023/05/21 08:22:39;;;;;;;3.60;1.90;;;;;;;;;;4966363;28;100727;-83
2023/05/21 08:25:06;;;;;;;;;;;;;;;;;;4938024;28;99316;-81
2023/05/21 08:27:32;;;;;;;3.75;1.60;;;;;;;;;;4956503;28;100743;-81
2023/05/21 08:29:59;;;;;;;3.40;1.70;;;;;;;;;;4971859;28;99551;-81
2023/05/21 08:32:26;;;;;;;3.30;1.75;;;;;;;;;;4966331;28;99358;-82
2023/05/21 08:34:53;;;;;;;4.53;1.63;;;;;;;;;;4956510;28;102018;-81
2023/05/21 08:37:43;;;;;;;3.65;1.77;;;;;;;;;;4942489;28;99294;-82
2023/05/21 08:40:34;;;;;;;3.40;1.60;;;;;;;;;;4950484;28;101075;-81
2023/05/21 08:43:01;;;;;;;2.97;1.40;;;;;;;;;;4964533;28;101817;-81
2023/05/21 08:45:40;;;;;;;3.47;1.67;;;;;;;;;;4956055;28;99238;-81
2023/05/21 08:48:08;;;;;;;3.10;1.58;;;;;;;;;;4960000;28;98721;-81
2023/05/21 08:50:35;;;;;;;3.10;1.50;;;;;;;;;;4963911;28;101337;-82
2023/05/21 08:53:08;;;;;;;3.03;1.60;;;;;;;;;;4957033;28;99253;-81
2023/05/21 08:55:50;;;;;;;3.28;1.70;;;;;;;;;;4948259;28;100142;-81
2023/05/21 08:58:18;;;;;;;4.43;1.92;;;;;;;;;;4945618;28;99053;-81
2023/05/21 09:00:45;;;;;;;2.97;1.58;;;;;;;;;;4945082;28;101929;-80
2023/05/21 09:03:13;;;;;;;3.63;1.70;;;;;;;;;;4928212;28;102232;-80
2023/05/21 09:05:42;;;;;;;3.15;1.73;;;;;;;;;;4946595;28;98621;-80
2023/05/21 09:08:13;;;;;;;3.85;1.80;;;;;;;;;;4956857;28;99173;-82
2023/05/21 09:11:00;;;;;;;3.00;1.67;;;;;;;;;;4939891;28;103614;-81
2023/05/21 09:13:31;;;;;;;3.13;1.50;;;;;;;;;;4944897;28;98633;-81
2023/05/21 09:16:02;;;;;;;2.88;1.50;;;;;;;;;;4944949;28;99315;-82
2023/05/21 09:18:28;;;;;;;2.92;1.70;;;;;;;;;;4948060;28;101581;-80
2023/05/21 09:21:28;;;;;;;4.82;2.13;;;;;;;;;;4959193;28;104585;-82
2023/05/21 09:24:10;;;;;;;4.15;1.85;;;;;;;;;;4945566;28;101825;-82
2023/05/21 09:26:37;;;;;;;3.97;1.80;;;;;;;;;;4944868;28;98700;-82
2023/05/21 09:29:05;;;;;;;4.13;1.70;;;;;;;;;;4953799;28;101701;-82
2023/05/21 09:31:32;;;;;;;3.45;1.63;;;;;;;;;;4965490;28;99105;-81
2023/05/21 09:33:59;;;;;;;3.17;1.70;;;;;;;;;;4956154;28;98627;-81
2023/05/21 09:36:28;;;;;;;3.75;1.83;;;;;;;;;;4955183;28;100927;-81
2023/05/21 09:38:57;;;;;;;3.65;1.90;;;;;;;;;;4964707;28;106375;-81
2023/05/21 09:41:30;;;;;;;3.90;1.80;;;;;;;;;;4968262;28;98722;-81
2023/05/21 09:44:00;;;;;;;3.60;1.90;;;;;;;;;;4950243;28;101575;-82
2023/05/21 09:46:36;;;;;;;4.63;1.95;;;;;;;;;;4950880;28;97832;-80
2023/05/21 09:49:03;;;;;;;4.15;1.90;;;;;;;;;;4963461;28;102648;-81
2023/05/21 09:51:31;;;;;;;3.28;1.73;;;;;;;;;;4944282;28;100116;-82
2023/05/21 09:53:57;;;;;;;3.60;1.70;;;;;;;;;;4943890;28;99325;-82
2023/05/21 09:56:25;;;;;;;3.45;1.70;;;;;;;;;;4945430;28;101207;-82
2023/05/21 09:58:55;;;;;;;3.60;1.65;;;;;;;;;;4963750;28;99573;-82
2023/05/21 10:01:22;;;;;;;4.28;1.75;;;;;;;;;;4945956;28;98690;-81
2023/05/21 10:03:56;;;;;;;3.67;1.80;;;;;;;;;;4948489;28;98694;-81
2023/05/21 10:06:25;;;;;;;5.10;1.80;;;;;;;;;;4944551;28;98614;-81
2023/05/21 10:08:52;;;;;;;3.10;1.77;;;;;;;;;;4927076;28;100040;-81
2023/05/21 10:11:21;;;;;;;3.95;1.73;;;;;;;;;;4943130;28;100813;-81
2023/05/21 10:13:52;;;;;;;3.53;1.60;;;;;;;;;;4945264;28;98785;-81
2023/05/21 10:16:18;;;;;;;3.78;1.85;;;;;;;;;;4944663;28;99068;-81
2023/05/21 10:18:45;;;;;;;3.95;1.80;;;;;;;;;;4944038;28;100878;-81
2023/05/21 10:21:12;;;;;;;3.15;1.80;;;;;;;;;;4945364;28;98537;-81
2023/05/21 10:23:40;;;;;;;3.67;1.90;;;;;;;;;;4943745;28;100906;-81
2023/05/21 10:26:07;;;;;;;4.43;2.00;;;;;;;;;;4947846;28;99641;-82
2023/05/21 10:28:33;;;;;;;4.25;1.92;;;;;;;;;;4944068;28;99042;-82
2023/05/21 10:31:02;;;;;;;4.47;1.90;;;;;;;;;;4945701;28;100033;-82
2023/05/21 10:33:29;;;;;;;4.38;1.98;;;;;;;;;;4945283;28;98715;-81
2023/05/21 10:35:57;;;;;;;4.53;1.83;;;;;;;;;;4946404;28;100548;-81
2023/05/21 10:38:23;;;;;;;3.38;1.80;;;;;;;;;;4946441;28;99152;-80
2023/05/21 10:40:51;;;;;;;3.40;1.80;;;;;;;;;;4946787;28;98590;-83
2023/05/21 10:43:24;;;;;;;4.07;2.00;;;;;;;;;;4944604;28;99298;-82
2023/05/21 10:45:53;;;;;;;4.25;1.80;;;;;;;;;;4945085;28;99430;-82
2023/05/21 10:48:29;;;;;;;3.70;1.73;;;;;;;;;;4948888;28;98846;-81
2023/05/21 10:51:00;;;;;;;4.50;2.00;;;;;;;;;;4948358;28;106821;-81
2023/05/21 10:53:27;;;;;;;5.25;2.00;;;;;;;;;;4944504;28;99027;-81
2023/05/21 10:56:12;;;;;;;4.25;1.98;;;;;;;;;;4945211;28;98564;-81
2023/05/21 10:58:38;;;;;;;;;;;;;;;;;;4939915;28;99121;-81
2023/05/21 11:01:06;;;;;;;3.90;1.90;;;;;;;;;;4947229;28;102674;-81
2023/05/21 11:03:35;;;;;;;5.60;2.15;;;;;;;;;;4944349;28;98643;-82
2023/05/21 11:06:07;;;;;;;4.53;1.90;;;;;;;;;;4944386;28;99501;-80
2023/05/21 11:08:35;;;;;;;3.70;1.92;;;;;;;;;;4946993;28;99187;-80
2023/05/21 11:11:02;;;;;;;3.90;1.88;;;;;;;;;;4944244;28;99486;-80
2023/05/21 11:13:49;;;;;;;3.97;2.08;;;;;;;;;;4943114;28;98678;-81
2023/05/21 11:16:16;;;;;;;3.70;1.85;;;;;;;;;;4945109;28;99393;-80
2023/05/21 11:18:46;;;;;;;4.45;2.13;;;;;;;;;;4947069;28;99589;-81
2023/05/21 11:21:14;;;;;;;4.28;2.10;;;;;;;;;;4948578;28;99045;-81
2023/05/21 11:23:50;;;;;;;3.92;2.00;;;;;;;;;;4946886;28;98715;-82
2023/05/21 11:26:23;;;;;;;4.10;1.98;;;;;;;;;;4948347;28;98771;-82
2023/05/21 11:29:04;;;;;;;4.25;2.05;;;;;;;;;;4937472;28;98533;-81
2023/05/21 11:31:39;;;;;;;4.13;2.08;;;;;;;;;;4951216;28;98894;-82
2023/05/21 11:34:09;;;;;;;4.50;2.05;;;;;;;;;;4949579;28;99825;-82
2023/05/21 11:36:37;;;;;;;4.93;2.40;;;;;;;;;;4947634;28;99448;-82
2023/05/21 11:39:16;;;;;;;4.38;2.30;;;;;;;;;;4945752;28;101854;-82
2023/05/21 11:41:59;;;;;;;4.40;2.17;;;;;;;;;;4936685;28;98528;-81
2023/05/21 11:44:39;;;;;;;4.95;2.33;;;;;;;;;;4934632;28;98721;-80
2023/05/21 11:47:06;;;;;;;4.38;2.20;;;;;;;;;;4944105;28;106228;-81
2023/05/21 11:49:33;;;;;;;3.80;2.15;;;;;;;;;;4934569;28;98928;-82
2023/05/21 11:52:03;;;;;;;5.13;2.35;;;;;;;;;;4946324;28;102184;-81
2023/05/21 11:54:35;;;;;;;4.88;2.30;;;;;;;;;;4950297;28;99755;-80
2023/05/21 11:57:06;;;;;;;4.03;2.20;;;;;;;;;;4958346;28;103369;-81
2023/05/21 11:59:33;;;;;;;4.57;2.40;;;;;;;;;;4946438;28;101368;-80
2023/05/21 12:02:01;;;;;;;4.78;2.20;;;;;;;;;;4947660;28;98882;-80
2023/05/21 12:04:30;;;;;;;4.88;2.28;;;;;;;;;;4947411;28;99843;-80
2023/05/21 12:06:57;;;;;;;6.30;2.50;;;;;;;;;;4936585;28;103491;-80
2023/05/21 12:09:24;;;;;;;3.97;2.10;;;;;;;;;;4950640;28;98850;-82
2023/05/21 12:11:51;;;;;;;4.82;2.38;;;;;;;;;;4952465;28;101922;-81
2023/05/21 12:14:20;;;;;;;4.40;2.30;;;;;;;;;;4952033;28;99663;-80
2023/05/21 12:16:46;;;;;;;3.95;2.10;;;;;;;;;;4950909;28;99491;-80
2023/05/21 12:19:16;;;;;;;4.40;2.20;;;;;;;;;;4947015;28;99320;-80
2023/05/21 12:21:42;;;;;;;4.20;2.20;;;;;;;;;;4946714;28;99514;-81
2023/05/21 12:24:09;;;;;;;5.53;2.40;;;;;;;;;;4944092;28;99472;-81
2023/05/21 12:26:36;;;;;;;4.65;2.40;;;;;;;;;;4944544;28;99112;-81
2023/05/21 12:29:03;;;;;;;5.22;2.22;;;;;;;;;;4943792;28;98681;-82
2023/05/21 12:31:31;;;;;;;;;;;;;;;;;;4946326;28;99832;-82
2023/05/21 12:33:58;;;;;;;4.78;2.33;;;;;;;;;;4955684;28;119030;-82
2023/05/21 12:36:25;;;;;;;5.47;2.42;;;;;;;;;;4968342;28;98630;-82
2023/05/21 12:38:52;;;;;;;4.75;2.33;;;;;;;;;;4965711;28;99732;-82
2023/05/21 12:41:20;;;;;;;4.47;2.45;;;;;;;;;;4958851;28;99271;-81
2023/05/21 12:43:47;;;;;;;5.43;2.60;;;;;;;;;;4959507;28;100741;-82
2023/05/21 12:46:16;;;;;;;;;;;;;;;;;;4967232;28;99204;-81
2023/05/21 12:48:51;;;;;;;4.53;2.40;;;;;;;;;;4966503;28;99241;-82
2023/05/21 12:51:18;;;;;;;5.75;2.45;;;;;;;;;;4966665;28;99483;-81
2023/05/21 12:53:45;;;;;;;4.90;2.60;;;;;;;;;;4966620;28;99605;-82
2023/05/21 12:56:12;;;;;;;4.53;2.40;;;;;;;;;;4954995;28;98543;-81
2023/05/21 12:58:39;;;;;;;;;;;;;;;;;;4956867;28;100233;-82
2023/05/21 13:01:11;;;;;;;5.63;2.70;;;;;;;;;;4957054;28;100117;-82
2023/05/21 13:03:42;;;;;;;5.18;2.50;;;;;;;;;;4965191;28;101742;-80
2023/05/21 13:06:09;;;;;;;5.47;2.60;;;;;;;;;;4956260;28;98286;-82
2023/05/21 13:08:36;;;;;;;5.60;2.80;;;;;;;;;;4948570;28;98719;-81
2023/05/21 13:11:03;;;;;;;5.25;2.55;;;;;;;;;;4966322;28;100950;-82
2023/05/21 13:13:30;;;;;;;5.35;2.60;;;;;;;;;;4963971;28;100271;-82
2023/05/21 13:15:59;;;;;;;5.72;2.78;;;;;;;;;;4967650;28;98541;-82
2023/05/21 13:18:26;;;;;;;5.05;2.53;;;;;;;;;;4966164;28;99573;-82
2023/05/21 13:20:53;;;;;;;4.22;2.50;;;;;;;;;;4967992;28;99035;-81
2023/05/21 13:23:19;;;;;;;5.63;2.67;;;;;;;;;;4966071;28;99031;-81
2023/05/21 13:25:46;;;;;;;5.53;2.75;;;;;;;;;;4965505;28;100209;-82
2023/05/21 13:28:14;;;;;;;6.07;3.03;;;;;;;;;;4965253;28;98580;-81
2023/05/21 13:30:40;;;;;;;5.53;2.80;;;;;;;;;;4960495;28;99370;-81
2023/05/21 13:33:07;;;;;;;5.35;2.80;;;;;;;;;;4952600;28;99242;-81
2023/05/21 13:35:36;;;;;;;5.85;2.83;;;;;;;;;;4963968;28;98676;-81
2023/05/21 13:38:03;;;;;;;5.38;2.75;;;;;;;;;;4963869;28;99474;-82
2023/05/21 13:40:32;;;;;;;6.22;2.90;;;;;;;;;;4965341;28;99334;-81
2023/05/21 13:43:04;;;;;;;6.25;3.03;;;;;;;;;;4969481;28;98689;-81
2023/05/21 13:45:30;;;;;;;6.50;2.83;;;;;;;;;;4948156;28;101997;-81
2023/05/21 13:47:57;;;;;;;5.45;2.90;;;;;;;;;;4963578;28;98998;-81
2023/05/21 13:50:24;;;;;;;5.32;2.75;;;;;;;;;;4965760;28;100175;-81
2023/05/21 13:52:50;;;;;;;5.28;2.75;;;;;;;;;;4962588;28;99227;-81
2023/05/21 13:55:17;;;;;;;5.78;3.00;;;;;;;;;;4965652;28;97840;-82
2023/05/21 13:57:44;;;;;;;6.13;2.83;;;;;;;;;;4958957;28;99237;-80
2023/05/21 14:00:14;;;;;;;5.70;2.83;;;;;;;;;;4954157;28;99886;-81
2023/05/21 14:02:41;;;;;;;6.63;3.03;;;;;;;;;;4944699;28;99291;-81
2023/05/21 14:05:09;;;;;;;5.38;2.80;;;;;;;;;;4967348;28;100212;-81
2023/05/21 14:07:36;;;;;;;6.25;3.20;;;;;;;;;;4965179;28;98926;-81
2023/05/21 14:10:02;;;;;;;5.47;2.75;;;;;;;;;;4966286;28;99302;-81
2023/05/21 14:12:29;;;;;;;5.20;2.70;;;;;;;;;;4963192;28;102085;-82
2023/05/21 14:14:56;;;;;;;6.13;2.90;;;;;;;;;;4965871;28;98512;-83
2023/05/21 14:17:23;;;;;;;5.88;2.95;;;;;;;;;;4943613;28;99732;-82
2023/05/21 14:19:50;;;;;;;6.45;2.83;;;;;;;;;;4963571;28;98437;-82
2023/05/21 14:22:16;;;;;;;5.13;2.78;;;;;;;;;;4963931;28;98535;-80
2023/05/21 14:24:43;;;;;;;6.40;3.00;;;;;;;;;;4964938;28;98869;-82
2023/05/21 14:27:11;;;;;;;5.35;2.80;;;;;;;;;;4962971;28;100272;-81
2023/05/21 14:29:40;;;;;;;5.40;2.85;;;;;;;;;;4962115;28;99466;-81
2023/05/21 14:32:07;;;;;;;6.97;3.03;;;;;;;;;;4963352;28;99320;-81
2023/05/21 14:34:34;;;;;;;5.72;2.90;;;;;;;;;;4950658;28;98709;-81
2023/05/21 14:37:00;;;;;;;5.75;2.92;;;;;;;;;;4946046;28;99297;-82
2023/05/21 14:39:27;;;;;;;6.00;2.88;;;;;;;;;;4945367;28;102646;-81
2023/05/21 14:41:54;;;;;;;5.50;3.00;;;;;;;;;;4945735;28;99231;-82
2023/05/21 14:44:20;;;;;;;5.43;2.92;;;;;;;;;;4947549;28;98997;-81
2023/05/21 14:46:47;;;;;;;5.60;2.95;;;;;;;;;;4946784;28;98919;-81
2023/05/21 14:49:14;;;;;;;6.75;3.15;;;;;;;;;;4948468;28;98633;-81